sensor_id;sensor_type;location;lat;lon;timestamp;P1;P2;P0
74432;PMS7003;62865;53.146;23.172;2022-09-01T00:03:30;2.4;1.8;1.6
74432;PMS7003;62865;53.146;23.172;2022-09-01T00:08:40;1.8;1.8;1.4
74432;PMS7003;62865;53.146;23.172;2022-09-01T00:13:03;3;2;1.2
74432;PMS7003;62865;53.146;23.172;2022-09-01T00:18:02;2.8;2;1.6
74432;PMS7003;62865;53.146;23.172;2022-09-01T00:23:41;3.4;2.2;1.4
74432;PMS7003;62865;53.146;23.172;2022-09-01T00:28:20;2;1.5;1
74432;PMS7003;62865;53.146;23.172;2022-09-01T00:33:39;1.6;1.6;1.4
74432;PMS7003;62865;53.146;23.172;2022-09-01T00:38:20;1.6;1.6;1
74432;PMS7003;62865;53.146;23.172;2022-09-01T00:43:43;2;1.8;1.2
74432;PMS7003;62865;53.146;23.172;2022-09-01T00:48:40;3.4;2.2;1.4
74432;PMS7003;62865;53.146;23.172;2022-09-01T00:53:20;2.6;2.4;1.6
74432;PMS7003;62865;53.146;23.172;2022-09-01T00:58:19;2.2;1.8;1.4
74432;PMS7003;62865;53.146;23.172;2022-09-01T01:03:09;3.2;2;1.8
74432;PMS7003;62865;53.146;23.172;2022-09-01T01:08:03;2.4;2;1.8
74432;PMS7003;62865;53.146;23.172;2022-09-01T01:13:24;3.2;2.2;1.8
74432;PMS7003;62865;53.146;23.172;2022-09-01T01:18:24;2.6;2;1.4
74432;PMS7003;62865;53.146;23.172;2022-09-01T01:23:44;3;2.4;2
74432;PMS7003;62865;53.146;23.172;2022-09-01T01:28:43;3.4;2;1.8
74432;PMS7003;62865;53.146;23.172;2022-09-01T01:33:24;2.6;1.6;1
74432;PMS7003;62865;53.146;23.172;2022-09-01T01:38:42;2.4;1.4;1
74432;PMS7003;62865;53.146;23.172;2022-09-01T01:43:42;3;2.3;1.5
74432;PMS7003;62865;53.146;23.172;2022-09-01T01:48:29;2.2;2;1.4
74432;PMS7003;62865;53.146;23.172;2022-09-01T01:53:04;2.8;2.4;1.8
74432;PMS7003;62865;53.146;23.172;2022-09-01T01:58:12;2;1.6;1.4
74432;PMS7003;62865;53.146;23.172;2022-09-01T02:03:41;3;2.4;2
74432;PMS7003;62865;53.146;23.172;2022-09-01T02:08:30;2.4;2.4;1.4
74432;PMS7003;62865;53.146;23.172;2022-09-01T02:13:23;2.8;2.4;1.6
74432;PMS7003;62865;53.146;23.172;2022-09-01T02:18:22;1.8;1.6;1.2
74432;PMS7003;62865;53.146;23.172;2022-09-01T02:23:21;1.8;1.8;1.8
74432;PMS7003;62865;53.146;23.172;2022-09-01T02:28:32;2.2;2.2;1.8
74432;PMS7003;62865;53.146;23.172;2022-09-01T02:33:31;2;1.8;1.2
74432;PMS7003;62865;53.146;23.172;2022-09-01T02:38:43;2.2;1.8;1.4
74432;PMS7003;62865;53.146;23.172;2022-09-01T02:43:03;2.5;2;1.5
74432;PMS7003;62865;53.146;23.172;2022-09-01T02:48:03;3;3;1.7
74432;PMS7003;62865;53.146;23.172;2022-09-01T02:53:45;4;4;3
74432;PMS7003;62865;53.146;23.172;2022-09-01T02:58:35;3;3;2.3
74432;PMS7003;62865;53.146;23.172;2022-09-01T03:03:41;3.2;2;1.8
74432;PMS7003;62865;53.146;23.172;2022-09-01T03:08:13;3.4;3.2;2.4
74432;PMS7003;62865;53.146;23.172;2022-09-01T03:13:35;3.3;2.3;1.7
74432;PMS7003;62865;53.146;23.172;2022-09-01T03:18:45;1.7;1.7;1.7
74432;PMS7003;62865;53.146;23.172;2022-09-01T03:23:33;3;2.6;1.8
74432;PMS7003;62865;53.146;23.172;2022-09-01T03:28:21;3.3;2.7;2
74432;PMS7003;62865;53.146;23.172;2022-09-01T03:33:09;3.2;2.2;1.8
74432;PMS7003;62865;53.146;23.172;2022-09-01T03:38:03;3.8;3;1.8
74432;PMS7003;62865;53.146;23.172;2022-09-01T03:43:04;2.6;2.6;2
74432;PMS7003;62865;53.146;23.172;2022-09-01T03:48:25;2.3;2.3;1.8
74432;PMS7003;62865;53.146;23.172;2022-09-01T03:53:43;5;3.5;2.5
74432;PMS7003;62865;53.146;23.172;2022-09-01T03:58:29;3.5;3.5;2.5
74432;PMS7003;62865;53.146;23.172;2022-09-01T04:03:22;4.7;3.3;2.3
74432;PMS7003;62865;53.146;23.172;2022-09-01T04:08:21;3;3;3
74432;PMS7003;62865;53.146;23.172;2022-09-01T04:13:34;5;4.7;3.3
74432;PMS7003;62865;53.146;23.172;2022-09-01T04:18:45;4;3;3
74432;PMS7003;62865;53.146;23.172;2022-09-01T04:23:11;3.8;3.4;2
74432;PMS7003;62865;53.146;23.172;2022-09-01T04:28:29;4;3;3
74432;PMS7003;62865;53.146;23.172;2022-09-01T04:33:13;2.5;2.5;1.5
74432;PMS7003;62865;53.146;23.172;2022-09-01T04:38:31;5;4.5;2.8
74432;PMS7003;62865;53.146;23.172;2022-09-01T04:43:25;3.5;3.5;2.5
74432;PMS7003;62865;53.146;23.172;2022-09-01T04:48:35;5;5;3.5
74432;PMS7003;62865;53.146;23.172;2022-09-01T04:53:31;4;3.8;2.8
74432;PMS7003;62865;53.146;23.172;2022-09-01T04:58:31;4.8;3.8;2.8
74432;PMS7003;62865;53.146;23.172;2022-09-01T05:03:33;4.2;3.4;2.8
74432;PMS7003;62865;53.146;23.172;2022-09-01T05:08:45;3.4;3;2.4
74432;PMS7003;62865;53.146;23.172;2022-09-01T05:13:03;4.4;3.6;2.4
74432;PMS7003;62865;53.146;23.172;2022-09-01T05:18:13;5.2;3.6;2.6
74432;PMS7003;62865;53.146;23.172;2022-09-01T05:23:25;4.2;2.8;2.4
74432;PMS7003;62865;53.146;23.172;2022-09-01T05:28:43;3.6;2.8;1.8
74432;PMS7003;62865;53.146;23.172;2022-09-01T05:33:41;2.8;2.6;2
74432;PMS7003;62865;53.146;23.172;2022-09-01T05:38:21;2.6;1.8;1.4
74432;PMS7003;62865;53.146;23.172;2022-09-01T05:43:37;2.8;2.8;1.8
74432;PMS7003;62865;53.146;23.172;2022-09-01T05:48:43;3.2;2.2;1.6
74432;PMS7003;62865;53.146;23.172;2022-09-01T05:53:21;2;1.8;1.2
74432;PMS7003;62865;53.146;23.172;2022-09-01T05:58:19;2.8;2.2;1.8
74432;PMS7003;62865;53.146;23.172;2022-09-01T06:03:09;3.2;2.6;2.4
74432;PMS7003;62865;53.146;23.172;2022-09-01T06:08:23;3.6;3.2;2.4
74432;PMS7003;62865;53.146;23.172;2022-09-01T06:13:13;4;3.7;2.3
74432;PMS7003;62865;53.146;23.172;2022-09-01T06:18:23;3.6;3.4;2.2
74432;PMS7003;62865;53.146;23.172;2022-09-01T06:23:43;5;4.6;3.2
74432;PMS7003;62865;53.146;23.172;2022-09-01T06:28:29;5.6;4.8;3.4
74432;PMS7003;62865;53.146;23.172;2022-09-01T06:33:19;7;4.8;4
74432;PMS7003;62865;53.146;23.172;2022-09-01T06:38:03;4.3;4;3
74432;PMS7003;62865;53.146;23.172;2022-09-01T06:43:30;4;4;3
74432;PMS7003;62865;53.146;23.172;2022-09-01T06:48:31;5;4.6;3.2
74432;PMS7003;62865;53.146;23.172;2022-09-01T06:53:36;5.4;4.6;3.2
74432;PMS7003;62865;53.146;23.172;2022-09-01T06:58:04;5.2;4.6;3
74432;PMS7003;62865;53.146;23.172;2022-09-01T07:03:09;4.6;3.8;2.8
74432;PMS7003;62865;53.146;23.172;2022-09-01T07:08:31;4.3;4;2.8
74432;PMS7003;62865;53.146;23.172;2022-09-01T07:13:25;2.2;2;1
74432;PMS7003;62865;53.146;23.172;2022-09-01T07:18:37;1;0.6;0.6
74432;PMS7003;62865;53.146;23.172;2022-09-01T07:23:31;0.4;0.4;0.2
74432;PMS7003;62865;53.146;23.172;2022-09-01T07:28:29;1;0.6;0.4
74432;PMS7003;62865;53.146;23.172;2022-09-01T07:33:31;0.4;0.4;0
74432;PMS7003;62865;53.146;23.172;2022-09-01T07:38:45;0.4;0.2;0.2
74432;PMS7003;62865;53.146;23.172;2022-09-01T07:43:04;1;1;0
74432;PMS7003;62865;53.146;23.172;2022-09-01T07:48:05;0.2;0.2;0.2
74432;PMS7003;62865;53.146;23.172;2022-09-01T07:53:27;0;0;0
74432;PMS7003;62865;53.146;23.172;2022-09-01T07:58:47;0;0;0
74432;PMS7003;62865;53.146;23.172;2022-09-01T08:03:35;0.3;0;0
74432;PMS7003;62865;53.146;23.172;2022-09-01T08:08:47;0.2;0.2;0
74432;PMS7003;62865;53.146;23.172;2022-09-01T08:13:25;0;0;0
74432;PMS7003;62865;53.146;23.172;2022-09-01T08:18:35;0.2;0;0
74432;PMS7003;62865;53.146;23.172;2022-09-01T08:23:47;0.2;0.2;0
74432;PMS7003;62865;53.146;23.172;2022-09-01T08:28:21;0;0;0
74432;PMS7003;62865;53.146;23.172;2022-09-01T08:33:03;0.3;0.3;0
74432;PMS7003;62865;53.146;23.172;2022-09-01T08:38:03;0;0;0
74432;PMS7003;62865;53.146;23.172;2022-09-01T08:43:18;0;0;0
74432;PMS7003;62865;53.146;23.172;2022-09-01T08:48:15;0.8;0;0
74432;PMS7003;62865;53.146;23.172;2022-09-01T08:53:28;0.3;0;0
74432;PMS7003;62865;53.146;23.172;2022-09-01T08:58:45;0.2;0;0
74432;PMS7003;62865;53.146;23.172;2022-09-01T09:03:48;0;0;0
74432;PMS7003;62865;53.146;23.172;2022-09-01T09:08:37;0.3;0;0
74432;PMS7003;62865;53.146;23.172;2022-09-01T09:14:06;0;0;0
74432;PMS7003;62865;53.146;23.172;2022-09-01T09:18:50;0;0;0
74432;PMS7003;62865;53.146;23.172;2022-09-01T09:23:48;0.5;0;0
74432;PMS7003;62865;53.146;23.172;2022-09-01T09:28:13;0;0;0
74432;PMS7003;62865;53.146;23.172;2022-09-01T09:33:04;0.3;0;0
74432;PMS7003;62865;53.146;23.172;2022-09-01T09:38:55;0;0;0
74432;PMS7003;62865;53.146;23.172;2022-09-01T09:43:36;0.2;0;0
74432;PMS7003;62865;53.146;23.172;2022-09-01T09:48:29;0.3;0;0
74432;PMS7003;62865;53.146;23.172;2022-09-01T09:53:37;0.8;0;0
74432;PMS7003;62865;53.146;23.172;2022-09-01T09:58:35;0.2;0;0
74432;PMS7003;62865;53.146;23.172;2022-09-01T10:03:30;0.5;0;0
74432;PMS7003;62865;53.146;23.172;2022-09-01T10:08:37;0;0;0
74432;PMS7003;62865;53.146;23.172;2022-09-01T10:13:47;0;0;0
74432;PMS7003;62865;53.146;23.172;2022-09-01T10:18:17;0;0;0
74432;PMS7003;62865;53.146;23.172;2022-09-01T10:23:03;0;0;0
74432;PMS7003;62865;53.146;23.172;2022-09-01T10:28:46;0;0;0
74432;PMS7003;62865;53.146;23.172;2022-09-01T10:33:35;1.2;0.6;0.2
74432;PMS7003;62865;53.146;23.172;2022-09-01T10:38:47;0;0;0
74432;PMS7003;62865;53.146;23.172;2022-09-01T10:44:08;0.3;0.3;0
74432;PMS7003;62865;53.146;23.172;2022-09-01T10:48:37;0;0;0
74432;PMS7003;62865;53.146;23.172;2022-09-01T10:53:50;0.4;0;0
74432;PMS7003;62865;53.146;23.172;2022-09-01T11:03:32;0;0;0
74432;PMS7003;62865;53.146;23.172;2022-09-01T11:13:34;0;0;0
74432;PMS7003;62865;53.146;23.172;2022-09-01T11:18:06;0.2;0.2;0
74432;PMS7003;62865;53.146;23.172;2022-09-01T11:23:20;0;0;0
74432;PMS7003;62865;53.146;23.172;2022-09-01T11:28:38;0.3;0;0
74432;PMS7003;62865;53.146;23.172;2022-09-01T11:33:55;0.3;0;0
74432;PMS7003;62865;53.146;23.172;2022-09-01T11:38:14;0.2;0;0
74432;PMS7003;62865;53.146;23.172;2022-09-01T11:43:45;0;0;0
74432;PMS7003;62865;53.146;23.172;2022-09-01T11:48:49;0;0;0
74432;PMS7003;62865;53.146;23.172;2022-09-01T11:53:47;0;0;0
74432;PMS7003;62865;53.146;23.172;2022-09-01T11:58:30;0;0;0
74432;PMS7003;62865;53.146;23.172;2022-09-01T12:03:34;0;0;0
74432;PMS7003;62865;53.146;23.172;2022-09-01T12:08:51;0;0;0
74432;PMS7003;62865;53.146;23.172;2022-09-01T12:13:38;0;0;0
74432;PMS7003;62865;53.146;23.172;2022-09-01T12:18:30;0;0;0
74432;PMS7003;62865;53.146;23.172;2022-09-01T12:23:38;0;0;0
74432;PMS7003;62865;53.146;23.172;2022-09-01T12:28:33;0;0;0
74432;PMS7003;62865;53.146;23.172;2022-09-01T12:33:33;0;0;0
74432;PMS7003;62865;53.146;23.172;2022-09-01T12:38:37;0;0;0
74432;PMS7003;62865;53.146;23.172;2022-09-01T12:43:49;0;0;0
74432;PMS7003;62865;53.146;23.172;2022-09-01T12:48:44;0;0;0
74432;PMS7003;62865;53.146;23.172;2022-09-01T12:53:03;0;0;0
74432;PMS7003;62865;53.146;23.172;2022-09-01T12:58:19;0;0;0
74432;PMS7003;62865;53.146;23.172;2022-09-01T13:04:22;0;0;0
74432;PMS7003;62865;53.146;23.172;2022-09-01T13:08:51;0;0;0
74432;PMS7003;62865;53.146;23.172;2022-09-01T13:13:29;0;0;0
74432;PMS7003;62865;53.146;23.172;2022-09-01T13:18:47;0;0;0
74432;PMS7003;62865;53.146;23.172;2022-09-01T13:23:39;0;0;0
74432;PMS7003;62865;53.146;23.172;2022-09-01T13:28:23;0;0;0
74432;PMS7003;62865;53.146;23.172;2022-09-01T13:33:03;0;0;0
74432;PMS7003;62865;53.146;23.172;2022-09-01T13:38:03;0;0;0
74432;PMS7003;62865;53.146;23.172;2022-09-01T13:43:23;0;0;0
74432;PMS7003;62865;53.146;23.172;2022-09-01T13:48:13;0.2;0;0
74432;PMS7003;62865;53.146;23.172;2022-09-01T13:53:27;0;0;0
74432;PMS7003;62865;53.146;23.172;2022-09-01T13:58:47;0;0;0
74432;PMS7003;62865;53.146;23.172;2022-09-01T14:03:31;0.3;0;0
74432;PMS7003;62865;53.146;23.172;2022-09-01T14:08:23;0;0;0
74432;PMS7003;62865;53.146;23.172;2022-09-01T14:13:13;0;0;0
74432;PMS7003;62865;53.146;23.172;2022-09-01T14:18:35;1.3;1.3;1
74432;PMS7003;62865;53.146;23.172;2022-09-01T14:23:49;0.2;0;0
74432;PMS7003;62865;53.146;23.172;2022-09-01T14:28:25;0;0;0
74432;PMS7003;62865;53.146;23.172;2022-09-01T14:33:03;0;0;0
74432;PMS7003;62865;53.146;23.172;2022-09-01T14:38:13;0.3;0;0
74432;PMS7003;62865;53.146;23.172;2022-09-01T14:43:37;0;0;0
74432;PMS7003;62865;53.146;23.172;2022-09-01T14:48:15;0;0;0
74432;PMS7003;62865;53.146;23.172;2022-09-01T14:53:37;0;0;0
74432;PMS7003;62865;53.146;23.172;2022-09-01T14:58:35;0;0;0
74432;PMS7003;62865;53.146;23.172;2022-09-01T15:03:31;0.5;0;0
74432;PMS7003;62865;53.146;23.172;2022-09-01T15:08:35;0.2;0;0
74432;PMS7003;62865;53.146;23.172;2022-09-01T15:13:49;0;0;0
74432;PMS7003;62865;53.146;23.172;2022-09-01T15:18:13;0;0;0
74432;PMS7003;62865;53.146;23.172;2022-09-01T15:23:03;0;0;0
74432;PMS7003;62865;53.146;23.172;2022-09-01T15:28:03;0;0;0
74432;PMS7003;62865;53.146;23.172;2022-09-01T15:33:43;0;0;0
74432;PMS7003;62865;53.146;23.172;2022-09-01T15:38:47;0.5;0;0
74432;PMS7003;62865;53.146;23.172;2022-09-01T15:43:03;0;0;0
74432;PMS7003;62865;53.146;23.172;2022-09-01T15:48:47;0;0;0
74432;PMS7003;62865;53.146;23.172;2022-09-01T15:53:37;0;0;0
74432;PMS7003;62865;53.146;23.172;2022-09-01T15:58:25;0;0;0
74432;PMS7003;62865;53.146;23.172;2022-09-01T16:03:19;0;0;0
74432;PMS7003;62865;53.146;23.172;2022-09-01T16:08:21;0;0;0
74432;PMS7003;62865;53.146;23.172;2022-09-01T16:13:01;0.8;0.3;0
74432;PMS7003;62865;53.146;23.172;2022-09-01T16:18:05;1;0;0
74432;PMS7003;62865;53.146;23.172;2022-09-01T16:23:29;0.5;0.3;0.3
74432;PMS7003;62865;53.146;23.172;2022-09-01T16:28:51;0.4;0;0
74432;PMS7003;62865;53.146;23.172;2022-09-01T16:33:31;0.5;0.5;0.5
74432;PMS7003;62865;53.146;23.172;2022-09-01T16:38:35;0.4;0;0
74432;PMS7003;62865;53.146;23.172;2022-09-01T16:43:25;4;4;2
74432;PMS7003;62865;53.146;23.172;2022-09-01T16:49:20;0;0;0
74432;PMS7003;62865;53.146;23.172;2022-09-01T16:54:58;0;0;0
74432;PMS7003;62865;53.146;23.172;2022-09-01T16:59:55;0.8;0.3;0
74432;PMS7003;62865;53.146;23.172;2022-09-01T17:03:13;0.2;0;0
74432;PMS7003;62865;53.146;23.172;2022-09-01T17:08:07;0;0;0
74432;PMS7003;62865;53.146;23.172;2022-09-01T17:13:49;0.4;0.2;0
74432;PMS7003;62865;53.146;23.172;2022-09-01T17:18:39;0;0;0
74432;PMS7003;62865;53.146;23.172;2022-09-01T17:23:37;0.4;0.4;0
74432;PMS7003;62865;53.146;23.172;2022-09-01T17:28:26;0;0;0
74432;PMS7003;62865;53.146;23.172;2022-09-01T17:33:39;0;0;0
74432;PMS7003;62865;53.146;23.172;2022-09-01T17:38:26;0.5;0;0
74432;PMS7003;62865;53.146;23.172;2022-09-01T17:43:06;0.5;0.5;0
74432;PMS7003;62865;53.146;23.172;2022-09-01T17:48:51;0.3;0.3;0
74432;PMS7003;62865;53.146;23.172;2022-09-01T17:53:19;1.2;0.8;0.4
74432;PMS7003;62865;53.146;23.172;2022-09-01T17:58:06;0.4;0.4;0
74432;PMS7003;62865;53.146;23.172;2022-09-01T18:04:09;1;0.4;0.2
74432;PMS7003;62865;53.146;23.172;2022-09-01T18:08:38;7.6;7;5.4
74432;PMS7003;62865;53.146;23.172;2022-09-01T18:13:47;2.6;2;1.4
74432;PMS7003;62865;53.146;23.172;2022-09-01T18:18:39;0.6;0.6;0.6
74432;PMS7003;62865;53.146;23.172;2022-09-01T18:23:36;1;1;0.4
74432;PMS7003;62865;53.146;23.172;2022-09-01T18:28:54;1;0.5;0
74432;PMS7003;62865;53.146;23.172;2022-09-01T18:33:05;0.3;0;0
74432;PMS7003;62865;53.146;23.172;2022-09-01T18:38:40;0.8;0.8;0.5
74432;PMS7003;62865;53.146;23.172;2022-09-01T18:43:19;0;0;0
74432;PMS7003;62865;53.146;23.172;2022-09-01T18:54:32;0.3;0.3;0
74432;PMS7003;62865;53.146;23.172;2022-09-01T18:58:29;0.5;0.5;0.3
74432;PMS7003;62865;53.146;23.172;2022-09-01T19:03:49;0.5;0.5;0.3
74432;PMS7003;62865;53.146;23.172;2022-09-01T19:08:53;0.8;0.6;0.6
74432;PMS7003;62865;53.146;23.172;2022-09-01T19:13:32;1.4;0.6;0.2
74432;PMS7003;62865;53.146;23.172;2022-09-01T19:18:58;0.8;0.6;0.2
74432;PMS7003;62865;53.146;23.172;2022-09-01T19:23:53;1.3;1;0.5
74432;PMS7003;62865;53.146;23.172;2022-09-01T19:28:49;2;0.8;0.8
74432;PMS7003;62865;53.146;23.172;2022-09-01T19:33:12;2;1.6;1.4
74432;PMS7003;62865;53.146;23.172;2022-09-01T19:38:04;1.3;1;1
74432;PMS7003;62865;53.146;23.172;2022-09-01T19:43:51;1.4;1;0.8
74432;PMS7003;62865;53.146;23.172;2022-09-01T19:48:23;2.5;1.8;1.5
74432;PMS7003;62865;53.146;23.172;2022-09-01T19:53:26;3.8;2.3;1.8
74432;PMS7003;62865;53.146;23.172;2022-09-01T19:59:11;4.5;3;2.5
74432;PMS7003;62865;53.146;23.172;2022-09-01T20:03:33;5;5;3
74432;PMS7003;62865;53.146;23.172;2022-09-01T20:08:34;4.5;3.8;2.8
74432;PMS7003;62865;53.146;23.172;2022-09-01T20:13:58;5.4;4.6;3.2
74432;PMS7003;62865;53.146;23.172;2022-09-01T20:18:53;4.8;4.2;3
74432;PMS7003;62865;53.146;23.172;2022-09-01T20:23:24;4.7;4;3
74432;PMS7003;62865;53.146;23.172;2022-09-01T20:33:46;4.3;3.5;3
74432;PMS7003;62865;53.146;23.172;2022-09-01T20:38:45;3.3;3.3;2.5
74432;PMS7003;62865;53.146;23.172;2022-09-01T20:43:48;2.8;2.5;1.8
74432;PMS7003;62865;53.146;23.172;2022-09-01T20:48:25;2;2;1.8
74432;PMS7003;62865;53.146;23.172;2022-09-01T20:54:39;3.5;3.3;2
74432;PMS7003;62865;53.146;23.172;2022-09-01T20:58:42;3.8;3;2
74432;PMS7003;62865;53.146;23.172;2022-09-01T21:09:00;3.7;3;2.3
74432;PMS7003;62865;53.146;23.172;2022-09-01T21:13:36;3.4;3.2;2.2
74432;PMS7003;62865;53.146;23.172;2022-09-01T21:18:32;3.5;2.3;2
74432;PMS7003;62865;53.146;23.172;2022-09-01T21:23:13;3;3;1.8
74432;PMS7003;62865;53.146;23.172;2022-09-01T21:28:27;2.7;2;1.7
74432;PMS7003;62865;53.146;23.172;2022-09-01T21:33:47;3.3;2.3;2
74432;PMS7003;62865;53.146;23.172;2022-09-01T21:38:35;1.6;1.6;1.2
74432;PMS7003;62865;53.146;23.172;2022-09-01T21:43:07;3.4;2.2;1.8
74432;PMS7003;62865;53.146;23.172;2022-09-01T21:48:37;2.2;1.8;1.4
74432;PMS7003;62865;53.146;23.172;2022-09-01T21:53:33;3.2;2.6;1.6
74432;PMS7003;62865;53.146;23.172;2022-09-01T21:58:49;4;3;2.3
74432;PMS7003;62865;53.146;23.172;2022-09-01T22:03:04;5.3;5.3;3
74432;PMS7003;62865;53.146;23.172;2022-09-01T22:08:25;4.3;3;2.5
74432;PMS7003;62865;53.146;23.172;2022-09-01T22:13:03;3.3;2.5;1.5
74432;PMS7003;62865;53.146;23.172;2022-09-01T22:18:35;3.5;2.8;2
74432;PMS7003;62865;53.146;23.172;2022-09-01T22:23:13;2;2;1.7
74432;PMS7003;62865;53.146;23.172;2022-09-01T22:28:33;3;3;1
74432;PMS7003;62865;53.146;23.172;2022-09-01T22:33:45;2.8;2.2;1.6
74432;PMS7003;62865;53.146;23.172;2022-09-01T22:38:33;2.4;1.8;1
74432;PMS7003;62865;53.146;23.172;2022-09-01T22:43:31;2.3;2;1.3
74432;PMS7003;62865;53.146;23.172;2022-09-01T22:48:43;3.4;3;2
74432;PMS7003;62865;53.146;23.172;2022-09-01T22:53:16;4;2.6;2.2
74432;PMS7003;62865;53.146;23.172;2022-09-01T22:58:14;4.6;3.8;2.8
74432;PMS7003;62865;53.146;23.172;2022-09-01T23:03:21;5;5;3
74432;PMS7003;62865;53.146;23.172;2022-09-01T23:08:41;4.3;3.3;2.7
74432;PMS7003;62865;53.146;23.172;2022-09-01T23:13:43;4.3;3.3;2.3
74432;PMS7003;62865;53.146;23.172;2022-09-01T23:18:24;3;3;3
74432;PMS7003;62865;53.146;23.172;2022-09-01T23:23:41;4;4;3
74432;PMS7003;62865;53.146;23.172;2022-09-01T23:28:35;5.7;4.3;3.3
74432;PMS7003;62865;53.146;23.172;2022-09-01T23:38:22;5.7;4.3;3.3
74432;PMS7003;62865;53.146;23.172;2022-09-01T23:43:03;5.6;4;3.2
74432;PMS7003;62865;53.146;23.172;2022-09-01T23:48:03;4.4;3.4;2.6
74432;PMS7003;62865;53.146;23.172;2022-09-01T23:53:11;6;5.3;3.3
74432;PMS7003;62865;53.146;23.172;2022-09-01T23:58:25;4;4;4
